sensor_id;sensor_type;location;lat;lon;timestamp;P1;durP1;ratioP1;P2;durP2;ratioP2
7607;SDS011;3845;48.120;11.534;2023-03-01T00:00:36;16.20;;;13.10;;
7607;SDS011;3845;48.120;11.534;2023-03-01T00:03:01;16.93;;;13.17;;
7607;SDS011;3845;48.120;11.534;2023-03-01T00:05:26;16.87;;;13.07;;
7607;SDS011;3845;48.120;11.534;2023-03-01T00:07:52;15.93;;;12.23;;
7607;SDS011;3845;48.120;11.534;2023-03-01T00:10:18;18.13;;;13.93;;
7607;SDS011;3845;48.120;11.534;2023-03-01T00:12:43;16.37;;;12.83;;
7607;SDS011;3845;48.120;11.534;2023-03-01T00:15:08;16.73;;;13.23;;
7607;SDS011;3845;48.120;11.534;2023-03-01T00:17:34;17.10;;;13.57;;
7607;SDS011;3845;48.120;11.534;2023-03-01T00:19:59;18.87;;;13.93;;
7607;SDS011;3845;48.120;11.534;2023-03-01T00:22:26;18.43;;;13.67;;
7607;SDS011;3845;48.120;11.534;2023-03-01T00:24:53;18.23;;;13.43;;
7607;SDS011;3845;48.120;11.534;2023-03-01T00:27:18;19.07;;;13.13;;
7607;SDS011;3845;48.120;11.534;2023-03-01T00:29:43;20.00;;;15.30;;
7607;SDS011;3845;48.120;11.534;2023-03-01T00:32:08;17.00;;;13.27;;
7607;SDS011;3845;48.120;11.534;2023-03-01T00:34:34;17.60;;;13.37;;
7607;SDS011;3845;48.120;11.534;2023-03-01T00:36:59;16.83;;;13.47;;
7607;SDS011;3845;48.120;11.534;2023-03-01T00:39:30;17.97;;;13.37;;
7607;SDS011;3845;48.120;11.534;2023-03-01T00:41:56;17.40;;;12.73;;
7607;SDS011;3845;48.120;11.534;2023-03-01T00:44:21;17.33;;;13.47;;
7607;SDS011;3845;48.120;11.534;2023-03-01T00:46:46;18.97;;;15.07;;
7607;SDS011;3845;48.120;11.534;2023-03-01T00:49:12;20.83;;;15.70;;
7607;SDS011;3845;48.120;11.534;2023-03-01T00:51:38;19.73;;;14.23;;
7607;SDS011;3845;48.120;11.534;2023-03-01T00:54:07;18.83;;;14.17;;
7607;SDS011;3845;48.120;11.534;2023-03-01T00:56:33;18.13;;;14.23;;
7607;SDS011;3845;48.120;11.534;2023-03-01T00:58:58;17.93;;;13.83;;
7607;SDS011;3845;48.120;11.534;2023-03-01T01:01:28;21.03;;;15.93;;
7607;SDS011;3845;48.120;11.534;2023-03-01T01:03:58;19.73;;;14.50;;
7607;SDS011;3845;48.120;11.534;2023-03-01T01:06:27;18.80;;;14.03;;
7607;SDS011;3845;48.120;11.534;2023-03-01T01:08:53;18.30;;;14.23;;
7607;SDS011;3845;48.120;11.534;2023-03-01T01:11:21;20.73;;;14.87;;
7607;SDS011;3845;48.120;11.534;2023-03-01T01:13:47;18.43;;;14.43;;
7607;SDS011;3845;48.120;11.534;2023-03-01T01:16:15;18.87;;;14.13;;
7607;SDS011;3845;48.120;11.534;2023-03-01T01:18:41;23.00;;;16.10;;
7607;SDS011;3845;48.120;11.534;2023-03-01T01:21:10;18.70;;;14.23;;
7607;SDS011;3845;48.120;11.534;2023-03-01T01:23:37;17.80;;;14.07;;
7607;SDS011;3845;48.120;11.534;2023-03-01T01:26:04;17.33;;;14.03;;
7607;SDS011;3845;48.120;11.534;2023-03-01T01:28:34;20.80;;;14.80;;
7607;SDS011;3845;48.120;11.534;2023-03-01T01:31:01;18.53;;;14.10;;
7607;SDS011;3845;48.120;11.534;2023-03-01T01:33:26;18.03;;;13.43;;
7607;SDS011;3845;48.120;11.534;2023-03-01T01:35:51;20.47;;;14.90;;
7607;SDS011;3845;48.120;11.534;2023-03-01T01:38:17;20.03;;;14.50;;
7607;SDS011;3845;48.120;11.534;2023-03-01T01:40:43;18.57;;;13.83;;
7607;SDS011;3845;48.120;11.534;2023-03-01T01:43:17;19.70;;;13.93;;
7607;SDS011;3845;48.120;11.534;2023-03-01T01:45:47;17.93;;;14.57;;
7607;SDS011;3845;48.120;11.534;2023-03-01T01:48:14;19.87;;;14.93;;
7607;SDS011;3845;48.120;11.534;2023-03-01T01:50:41;18.67;;;14.83;;
7607;SDS011;3845;48.120;11.534;2023-03-01T01:53:10;17.27;;;13.40;;
7607;SDS011;3845;48.120;11.534;2023-03-01T01:55:39;20.63;;;15.07;;
7607;SDS011;3845;48.120;11.534;2023-03-01T01:58:08;19.80;;;14.37;;
7607;SDS011;3845;48.120;11.534;2023-03-01T02:00:34;19.17;;;14.40;;
7607;SDS011;3845;48.120;11.534;2023-03-01T02:03:00;19.87;;;15.27;;
7607;SDS011;3845;48.120;11.534;2023-03-01T02:08:01;20.87;;;14.33;;
7607;SDS011;3845;48.120;11.534;2023-03-01T02:10:27;18.97;;;14.17;;
7607;SDS011;3845;48.120;11.534;2023-03-01T02:12:53;21.10;;;14.60;;
7607;SDS011;3845;48.120;11.534;2023-03-01T02:15:19;21.50;;;15.17;;
7607;SDS011;3845;48.120;11.534;2023-03-01T02:17:44;20.40;;;15.33;;
7607;SDS011;3845;48.120;11.534;2023-03-01T02:22:44;21.57;;;15.93;;
7607;SDS011;3845;48.120;11.534;2023-03-01T02:30:15;20.07;;;15.37;;
7607;SDS011;3845;48.120;11.534;2023-03-01T02:32:41;22.20;;;16.10;;
7607;SDS011;3845;48.120;11.534;2023-03-01T02:35:08;21.77;;;15.70;;
7607;SDS011;3845;48.120;11.534;2023-03-01T02:37:35;19.73;;;14.80;;
7607;SDS011;3845;48.120;11.534;2023-03-01T02:40:02;20.50;;;14.53;;
7607;SDS011;3845;48.120;11.534;2023-03-01T02:42:31;19.23;;;14.23;;
7607;SDS011;3845;48.120;11.534;2023-03-01T02:44:59;18.77;;;15.13;;
7607;SDS011;3845;48.120;11.534;2023-03-01T02:47:24;18.87;;;15.13;;
7607;SDS011;3845;48.120;11.534;2023-03-01T02:49:49;19.20;;;14.27;;
7607;SDS011;3845;48.120;11.534;2023-03-01T02:55:00;19.43;;;15.60;;
7607;SDS011;3845;48.120;11.534;2023-03-01T02:57:32;19.97;;;14.43;;
7607;SDS011;3845;48.120;11.534;2023-03-01T03:00:02;20.20;;;15.73;;
7607;SDS011;3845;48.120;11.534;2023-03-01T03:02:32;18.40;;;14.77;;
7607;SDS011;3845;48.120;11.534;2023-03-01T03:05:22;18.50;;;13.93;;
7607;SDS011;3845;48.120;11.534;2023-03-01T03:07:48;19.27;;;14.20;;
7607;SDS011;3845;48.120;11.534;2023-03-01T03:10:15;18.83;;;15.23;;
7607;SDS011;3845;48.120;11.534;2023-03-01T03:12:48;20.70;;;14.50;;
7607;SDS011;3845;48.120;11.534;2023-03-01T03:15:18;20.47;;;15.63;;
7607;SDS011;3845;48.120;11.534;2023-03-01T03:17:43;20.27;;;15.10;;
7607;SDS011;3845;48.120;11.534;2023-03-01T03:20:10;20.73;;;15.73;;
7607;SDS011;3845;48.120;11.534;2023-03-01T03:22:40;20.63;;;15.13;;
7607;SDS011;3845;48.120;11.534;2023-03-01T03:25:08;19.77;;;14.63;;
7607;SDS011;3845;48.120;11.534;2023-03-01T03:27:35;21.03;;;14.67;;
7607;SDS011;3845;48.120;11.534;2023-03-01T03:30:02;22.93;;;16.43;;
7607;SDS011;3845;48.120;11.534;2023-03-01T03:32:33;19.03;;;15.50;;
7607;SDS011;3845;48.120;11.534;2023-03-01T03:35:02;23.27;;;15.90;;
7607;SDS011;3845;48.120;11.534;2023-03-01T03:37:34;20.80;;;15.63;;
7607;SDS011;3845;48.120;11.534;2023-03-01T03:40:46;20.43;;;15.10;;
7607;SDS011;3845;48.120;11.534;2023-03-01T03:43:14;19.23;;;15.33;;
7607;SDS011;3845;48.120;11.534;2023-03-01T03:45:40;22.47;;;16.80;;
7607;SDS011;3845;48.120;11.534;2023-03-01T03:48:06;19.87;;;15.13;;
7607;SDS011;3845;48.120;11.534;2023-03-01T03:50:34;18.93;;;14.90;;
7607;SDS011;3845;48.120;11.534;2023-03-01T03:53:03;19.57;;;14.83;;
7607;SDS011;3845;48.120;11.534;2023-03-01T03:55:30;21.97;;;15.77;;
7607;SDS011;3845;48.120;11.534;2023-03-01T03:57:59;19.43;;;14.40;;
7607;SDS011;3845;48.120;11.534;2023-03-01T04:00:31;23.47;;;18.37;;
7607;SDS011;3845;48.120;11.534;2023-03-01T04:02:57;20.23;;;14.67;;
7607;SDS011;3845;48.120;11.534;2023-03-01T04:05:23;21.83;;;15.17;;
7607;SDS011;3845;48.120;11.534;2023-03-01T04:07:48;19.43;;;15.03;;
7607;SDS011;3845;48.120;11.534;2023-03-01T04:10:17;20.80;;;15.90;;
7607;SDS011;3845;48.120;11.534;2023-03-01T04:12:43;18.93;;;14.33;;
7607;SDS011;3845;48.120;11.534;2023-03-01T04:15:08;20.43;;;14.57;;
7607;SDS011;3845;48.120;11.534;2023-03-01T04:17:45;19.50;;;14.73;;
7607;SDS011;3845;48.120;11.534;2023-03-01T04:20:12;18.57;;;14.87;;
7607;SDS011;3845;48.120;11.534;2023-03-01T04:22:42;22.30;;;15.87;;
7607;SDS011;3845;48.120;11.534;2023-03-01T04:25:08;19.83;;;15.07;;
7607;SDS011;3845;48.120;11.534;2023-03-01T04:27:34;20.27;;;14.70;;
7607;SDS011;3845;48.120;11.534;2023-03-01T04:30:00;20.43;;;16.53;;
7607;SDS011;3845;48.120;11.534;2023-03-01T04:32:26;20.70;;;15.50;;
7607;SDS011;3845;48.120;11.534;2023-03-01T04:34:51;19.63;;;15.40;;
7607;SDS011;3845;48.120;11.534;2023-03-01T04:37:16;17.63;;;13.60;;
7607;SDS011;3845;48.120;11.534;2023-03-01T04:39:41;17.03;;;13.97;;
7607;SDS011;3845;48.120;11.534;2023-03-01T04:42:19;19.23;;;15.00;;
7607;SDS011;3845;48.120;11.534;2023-03-01T04:44:45;19.93;;;14.07;;
7607;SDS011;3845;48.120;11.534;2023-03-01T04:47:10;18.37;;;14.47;;
7607;SDS011;3845;48.120;11.534;2023-03-01T04:49:36;19.97;;;14.40;;
7607;SDS011;3845;48.120;11.534;2023-03-01T04:52:01;21.10;;;14.87;;
7607;SDS011;3845;48.120;11.534;2023-03-01T04:54:32;17.90;;;14.10;;
7607;SDS011;3845;48.120;11.534;2023-03-01T04:56:59;18.80;;;14.40;;
7607;SDS011;3845;48.120;11.534;2023-03-01T04:59:24;19.67;;;15.30;;
7607;SDS011;3845;48.120;11.534;2023-03-01T05:01:50;18.50;;;14.40;;
7607;SDS011;3845;48.120;11.534;2023-03-01T05:04:16;19.13;;;15.60;;
7607;SDS011;3845;48.120;11.534;2023-03-01T05:06:42;20.87;;;15.67;;
7607;SDS011;3845;48.120;11.534;2023-03-01T05:09:07;17.77;;;13.80;;
7607;SDS011;3845;48.120;11.534;2023-03-01T05:11:33;20.63;;;15.77;;
7607;SDS011;3845;48.120;11.534;2023-03-01T05:14:01;21.60;;;15.80;;
7607;SDS011;3845;48.120;11.534;2023-03-01T05:16:29;21.83;;;15.80;;
7607;SDS011;3845;48.120;11.534;2023-03-01T05:18:56;19.83;;;15.40;;
7607;SDS011;3845;48.120;11.534;2023-03-01T05:21:21;20.43;;;14.53;;
7607;SDS011;3845;48.120;11.534;2023-03-01T05:23:47;21.70;;;15.23;;
7607;SDS011;3845;48.120;11.534;2023-03-01T05:26:12;18.83;;;14.30;;
7607;SDS011;3845;48.120;11.534;2023-03-01T05:28:38;19.40;;;14.63;;
7607;SDS011;3845;48.120;11.534;2023-03-01T05:31:04;20.67;;;16.07;;
7607;SDS011;3845;48.120;11.534;2023-03-01T05:33:35;20.17;;;15.17;;
7607;SDS011;3845;48.120;11.534;2023-03-01T05:36:02;20.43;;;15.10;;
7607;SDS011;3845;48.120;11.534;2023-03-01T05:38:27;21.83;;;16.10;;
7607;SDS011;3845;48.120;11.534;2023-03-01T05:40:53;23.17;;;16.37;;
7607;SDS011;3845;48.120;11.534;2023-03-01T05:43:18;22.17;;;16.10;;
7607;SDS011;3845;48.120;11.534;2023-03-01T05:45:44;23.20;;;17.37;;
7607;SDS011;3845;48.120;11.534;2023-03-01T05:48:10;21.20;;;15.47;;
7607;SDS011;3845;48.120;11.534;2023-03-01T05:50:37;20.37;;;16.47;;
7607;SDS011;3845;48.120;11.534;2023-03-01T05:53:11;19.27;;;15.20;;
7607;SDS011;3845;48.120;11.534;2023-03-01T05:55:41;19.17;;;14.77;;
7607;SDS011;3845;48.120;11.534;2023-03-01T05:58:09;17.90;;;13.40;;
7607;SDS011;3845;48.120;11.534;2023-03-01T06:00:36;17.37;;;13.63;;
7607;SDS011;3845;48.120;11.534;2023-03-01T06:03:01;24.73;;;17.00;;
7607;SDS011;3845;48.120;11.534;2023-03-01T06:05:27;22.67;;;15.97;;
7607;SDS011;3845;48.120;11.534;2023-03-01T06:07:53;23.50;;;17.00;;
7607;SDS011;3845;48.120;11.534;2023-03-01T06:10:19;20.03;;;15.40;;
7607;SDS011;3845;48.120;11.534;2023-03-01T06:12:45;21.33;;;16.20;;
7607;SDS011;3845;48.120;11.534;2023-03-01T06:15:12;20.20;;;15.97;;
7607;SDS011;3845;48.120;11.534;2023-03-01T06:17:39;24.13;;;17.13;;
7607;SDS011;3845;48.120;11.534;2023-03-01T06:20:10;21.60;;;16.40;;
7607;SDS011;3845;48.120;11.534;2023-03-01T06:22:37;21.00;;;15.77;;
7607;SDS011;3845;48.120;11.534;2023-03-01T06:25:03;20.23;;;15.23;;
7607;SDS011;3845;48.120;11.534;2023-03-01T06:27:29;20.50;;;15.20;;
7607;SDS011;3845;48.120;11.534;2023-03-01T06:29:54;22.87;;;16.47;;
7607;SDS011;3845;48.120;11.534;2023-03-01T06:32:20;25.13;;;17.63;;
7607;SDS011;3845;48.120;11.534;2023-03-01T06:34:45;23.67;;;16.10;;
7607;SDS011;3845;48.120;11.534;2023-03-01T06:37:10;23.03;;;17.50;;
7607;SDS011;3845;48.120;11.534;2023-03-01T06:39:36;21.63;;;16.23;;
7607;SDS011;3845;48.120;11.534;2023-03-01T06:42:01;22.73;;;16.40;;
7607;SDS011;3845;48.120;11.534;2023-03-01T06:44:27;22.63;;;16.70;;
7607;SDS011;3845;48.120;11.534;2023-03-01T06:46:52;24.43;;;17.40;;
7607;SDS011;3845;48.120;11.534;2023-03-01T06:49:18;24.83;;;17.73;;
7607;SDS011;3845;48.120;11.534;2023-03-01T06:51:44;23.43;;;17.17;;
7607;SDS011;3845;48.120;11.534;2023-03-01T06:54:10;23.03;;;17.23;;
7607;SDS011;3845;48.120;11.534;2023-03-01T06:56:35;26.17;;;18.57;;
7607;SDS011;3845;48.120;11.534;2023-03-01T06:59:01;25.53;;;18.07;;
7607;SDS011;3845;48.120;11.534;2023-03-01T07:01:27;25.17;;;17.37;;
7607;SDS011;3845;48.120;11.534;2023-03-01T07:03:53;23.67;;;17.67;;
7607;SDS011;3845;48.120;11.534;2023-03-01T07:06:18;24.60;;;16.63;;
7607;SDS011;3845;48.120;11.534;2023-03-01T07:08:43;20.73;;;15.83;;
7607;SDS011;3845;48.120;11.534;2023-03-01T07:11:08;20.00;;;14.57;;
7607;SDS011;3845;48.120;11.534;2023-03-01T07:13:34;23.00;;;16.40;;
7607;SDS011;3845;48.120;11.534;2023-03-01T07:15:59;25.80;;;17.87;;
7607;SDS011;3845;48.120;11.534;2023-03-01T07:18:25;21.33;;;16.37;;
7607;SDS011;3845;48.120;11.534;2023-03-01T07:20:50;25.67;;;17.50;;
7607;SDS011;3845;48.120;11.534;2023-03-01T07:23:15;23.20;;;16.10;;
7607;SDS011;3845;48.120;11.534;2023-03-01T07:25:41;23.03;;;17.03;;
7607;SDS011;3845;48.120;11.534;2023-03-01T07:28:06;23.87;;;17.30;;
7607;SDS011;3845;48.120;11.534;2023-03-01T07:30:31;21.07;;;15.87;;
7607;SDS011;3845;48.120;11.534;2023-03-01T07:32:57;22.33;;;16.47;;
7607;SDS011;3845;48.120;11.534;2023-03-01T07:35:23;25.20;;;17.10;;
7607;SDS011;3845;48.120;11.534;2023-03-01T07:37:50;23.03;;;16.20;;
7607;SDS011;3845;48.120;11.534;2023-03-01T07:40:15;23.10;;;16.90;;
7607;SDS011;3845;48.120;11.534;2023-03-01T07:42:40;25.67;;;17.90;;
7607;SDS011;3845;48.120;11.534;2023-03-01T07:45:06;25.70;;;18.07;;
7607;SDS011;3845;48.120;11.534;2023-03-01T07:47:32;24.33;;;17.87;;
7607;SDS011;3845;48.120;11.534;2023-03-01T07:49:57;20.17;;;15.17;;
7607;SDS011;3845;48.120;11.534;2023-03-01T07:52:22;21.73;;;14.83;;
7607;SDS011;3845;48.120;11.534;2023-03-01T07:54:48;22.73;;;17.00;;
7607;SDS011;3845;48.120;11.534;2023-03-01T07:57:13;24.00;;;17.17;;
7607;SDS011;3845;48.120;11.534;2023-03-01T07:59:38;26.57;;;17.57;;
7607;SDS011;3845;48.120;11.534;2023-03-01T08:02:04;24.60;;;17.47;;
7607;SDS011;3845;48.120;11.534;2023-03-01T08:04:29;23.70;;;16.63;;
7607;SDS011;3845;48.120;11.534;2023-03-01T08:06:54;21.20;;;15.57;;
7607;SDS011;3845;48.120;11.534;2023-03-01T08:09:20;19.47;;;14.67;;
7607;SDS011;3845;48.120;11.534;2023-03-01T08:11:45;21.67;;;13.77;;
7607;SDS011;3845;48.120;11.534;2023-03-01T08:14:11;22.97;;;16.13;;
7607;SDS011;3845;48.120;11.534;2023-03-01T08:16:36;22.77;;;16.27;;
7607;SDS011;3845;48.120;11.534;2023-03-01T08:19:05;23.00;;;17.00;;
7607;SDS011;3845;48.120;11.534;2023-03-01T08:21:35;23.50;;;16.30;;
7607;SDS011;3845;48.120;11.534;2023-03-01T08:24:01;23.00;;;16.50;;
7607;SDS011;3845;48.120;11.534;2023-03-01T08:26:27;22.33;;;16.80;;
7607;SDS011;3845;48.120;11.534;2023-03-01T08:28:53;26.43;;;18.43;;
7607;SDS011;3845;48.120;11.534;2023-03-01T08:33:46;21.97;;;15.90;;
7607;SDS011;3845;48.120;11.534;2023-03-01T08:36:16;23.80;;;17.40;;
7607;SDS011;3845;48.120;11.534;2023-03-01T08:38:42;20.13;;;15.63;;
7607;SDS011;3845;48.120;11.534;2023-03-01T08:41:08;21.43;;;16.20;;
7607;SDS011;3845;48.120;11.534;2023-03-01T08:43:33;20.90;;;15.63;;
7607;SDS011;3845;48.120;11.534;2023-03-01T08:45:59;22.97;;;15.43;;
7607;SDS011;3845;48.120;11.534;2023-03-01T08:48:24;23.33;;;15.93;;
7607;SDS011;3845;48.120;11.534;2023-03-01T08:50:50;23.33;;;16.67;;
7607;SDS011;3845;48.120;11.534;2023-03-01T08:53:15;23.67;;;17.83;;
7607;SDS011;3845;48.120;11.534;2023-03-01T08:55:41;26.87;;;18.37;;
7607;SDS011;3845;48.120;11.534;2023-03-01T08:58:06;24.67;;;16.80;;
7607;SDS011;3845;48.120;11.534;2023-03-01T09:00:31;25.20;;;18.00;;
7607;SDS011;3845;48.120;11.534;2023-03-01T09:02:59;22.33;;;16.57;;
7607;SDS011;3845;48.120;11.534;2023-03-01T09:05:24;22.90;;;17.10;;
7607;SDS011;3845;48.120;11.534;2023-03-01T09:07:50;28.27;;;16.53;;
7607;SDS011;3845;48.120;11.534;2023-03-01T09:10:15;21.20;;;15.73;;
7607;SDS011;3845;48.120;11.534;2023-03-01T09:12:40;20.33;;;15.77;;
7607;SDS011;3845;48.120;11.534;2023-03-01T09:15:06;20.07;;;14.93;;
7607;SDS011;3845;48.120;11.534;2023-03-01T09:17:32;22.13;;;16.17;;
7607;SDS011;3845;48.120;11.534;2023-03-01T09:19:57;20.77;;;15.67;;
7607;SDS011;3845;48.120;11.534;2023-03-01T09:22:22;21.93;;;16.03;;
7607;SDS011;3845;48.120;11.534;2023-03-01T09:24:47;24.37;;;18.00;;
7607;SDS011;3845;48.120;11.534;2023-03-01T09:27:13;23.07;;;17.10;;
7607;SDS011;3845;48.120;11.534;2023-03-01T09:29:39;21.90;;;17.03;;
7607;SDS011;3845;48.120;11.534;2023-03-01T09:32:04;21.90;;;16.40;;
7607;SDS011;3845;48.120;11.534;2023-03-01T09:34:30;23.60;;;17.27;;
7607;SDS011;3845;48.120;11.534;2023-03-01T09:36:57;20.90;;;15.90;;
7607;SDS011;3845;48.120;11.534;2023-03-01T09:39:22;25.77;;;18.33;;
7607;SDS011;3845;48.120;11.534;2023-03-01T09:41:50;24.27;;;17.20;;
7607;SDS011;3845;48.120;11.534;2023-03-01T09:44:32;22.07;;;16.30;;
7607;SDS011;3845;48.120;11.534;2023-03-01T09:47:03;26.40;;;18.13;;
7607;SDS011;3845;48.120;11.534;2023-03-01T09:49:33;26.13;;;17.90;;
7607;SDS011;3845;48.120;11.534;2023-03-01T09:54:44;25.90;;;18.30;;
7607;SDS011;3845;48.120;11.534;2023-03-01T09:57:13;23.13;;;17.23;;
7607;SDS011;3845;48.120;11.534;2023-03-01T09:59:49;24.13;;;18.10;;
7607;SDS011;3845;48.120;11.534;2023-03-01T10:05:05;22.80;;;17.00;;
7607;SDS011;3845;48.120;11.534;2023-03-01T10:08:02;23.20;;;16.43;;
7607;SDS011;3845;48.120;11.534;2023-03-01T10:10:34;25.10;;;17.27;;
7607;SDS011;3845;48.120;11.534;2023-03-01T10:13:03;23.67;;;17.03;;
7607;SDS011;3845;48.120;11.534;2023-03-01T10:16:04;23.73;;;16.13;;
7607;SDS011;3845;48.120;11.534;2023-03-01T10:18:35;26.27;;;18.20;;
7607;SDS011;3845;48.120;11.534;2023-03-01T10:21:07;27.43;;;18.97;;
7607;SDS011;3845;48.120;11.534;2023-03-01T10:23:37;25.47;;;18.20;;
7607;SDS011;3845;48.120;11.534;2023-03-01T10:31:12;22.47;;;16.10;;
7607;SDS011;3845;48.120;11.534;2023-03-01T10:33:40;20.20;;;15.23;;
7607;SDS011;3845;48.120;11.534;2023-03-01T10:36:06;22.97;;;16.83;;
7607;SDS011;3845;48.120;11.534;2023-03-01T10:38:33;21.00;;;15.33;;
7607;SDS011;3845;48.120;11.534;2023-03-01T10:41:12;22.20;;;15.77;;
7607;SDS011;3845;48.120;11.534;2023-03-01T10:43:46;21.97;;;15.73;;
7607;SDS011;3845;48.120;11.534;2023-03-01T10:46:30;26.57;;;17.50;;
7607;SDS011;3845;48.120;11.534;2023-03-01T10:49:39;20.30;;;15.67;;
7607;SDS011;3845;48.120;11.534;2023-03-01T10:51:52;21.47;;;16.27;;
7607;SDS011;3845;48.120;11.534;2023-03-01T10:56:56;21.70;;;16.67;;
7607;SDS011;3845;48.120;11.534;2023-03-01T11:04:37;24.20;;;18.80;;
7607;SDS011;3845;48.120;11.534;2023-03-01T11:07:02;26.67;;;18.97;;
7607;SDS011;3845;48.120;11.534;2023-03-01T11:09:31;23.13;;;18.47;;
7607;SDS011;3845;48.120;11.534;2023-03-01T11:12:03;22.83;;;18.20;;
7607;SDS011;3845;48.120;11.534;2023-03-01T11:14:35;24.03;;;17.60;;
7607;SDS011;3845;48.120;11.534;2023-03-01T11:17:03;26.23;;;17.63;;
7607;SDS011;3845;48.120;11.534;2023-03-01T11:19:30;24.93;;;18.60;;
7607;SDS011;3845;48.120;11.534;2023-03-01T11:22:29;22.23;;;16.73;;
7607;SDS011;3845;48.120;11.534;2023-03-01T11:24:48;24.07;;;17.87;;
7607;SDS011;3845;48.120;11.534;2023-03-01T11:27:19;23.43;;;18.10;;
7607;SDS011;3845;48.120;11.534;2023-03-01T11:32:39;24.30;;;18.50;;
7607;SDS011;3845;48.120;11.534;2023-03-01T11:35:14;24.80;;;17.93;;
7607;SDS011;3845;48.120;11.534;2023-03-01T11:51:41;25.67;;;18.50;;
7607;SDS011;3845;48.120;11.534;2023-03-01T11:57:42;25.00;;;18.97;;
7607;SDS011;3845;48.120;11.534;2023-03-01T12:12:02;27.10;;;17.33;;
7607;SDS011;3845;48.120;11.534;2023-03-01T12:18:27;25.03;;;19.17;;
7607;SDS011;3845;48.120;11.534;2023-03-01T12:31:13;22.27;;;16.97;;
7607;SDS011;3845;48.120;11.534;2023-03-01T12:38:59;23.27;;;18.43;;
7607;SDS011;3845;48.120;11.534;2023-03-01T12:41:42;22.90;;;17.67;;
7607;SDS011;3845;48.120;11.534;2023-03-01T12:44:29;20.00;;;16.57;;
7607;SDS011;3845;48.120;11.534;2023-03-01T12:49:30;22.07;;;17.00;;
7607;SDS011;3845;48.120;11.534;2023-03-01T12:51:59;23.90;;;18.77;;
7607;SDS011;3845;48.120;11.534;2023-03-01T12:54:46;22.63;;;17.70;;
7607;SDS011;3845;48.120;11.534;2023-03-01T12:57:14;24.87;;;18.00;;
7607;SDS011;3845;48.120;11.534;2023-03-01T13:15:44;22.47;;;16.30;;
7607;SDS011;3845;48.120;11.534;2023-03-01T13:25:59;24.83;;;19.27;;
7607;SDS011;3845;48.120;11.534;2023-03-01T13:28:52;20.83;;;17.07;;
7607;SDS011;3845;48.120;11.534;2023-03-01T13:33:53;24.40;;;17.97;;
7607;SDS011;3845;48.120;11.534;2023-03-01T13:44:25;27.43;;;19.43;;
7607;SDS011;3845;48.120;11.534;2023-03-01T13:49:36;26.07;;;19.30;;
7607;SDS011;3845;48.120;11.534;2023-03-01T13:52:15;27.30;;;19.90;;
7607;SDS011;3845;48.120;11.534;2023-03-01T13:54:46;25.67;;;18.97;;
7607;SDS011;3845;48.120;11.534;2023-03-01T13:57:12;24.30;;;18.57;;
7607;SDS011;3845;48.120;11.534;2023-03-01T13:59:48;27.60;;;18.57;;
7607;SDS011;3845;48.120;11.534;2023-03-01T14:02:13;24.80;;;18.73;;
7607;SDS011;3845;48.120;11.534;2023-03-01T14:04:39;24.40;;;19.00;;
7607;SDS011;3845;48.120;11.534;2023-03-01T14:07:12;22.47;;;18.27;;
7607;SDS011;3845;48.120;11.534;2023-03-01T14:09:42;24.53;;;18.13;;
7607;SDS011;3845;48.120;11.534;2023-03-01T14:20:27;27.43;;;19.70;;
7607;SDS011;3845;48.120;11.534;2023-03-01T14:22:57;25.73;;;19.30;;
7607;SDS011;3845;48.120;11.534;2023-03-01T14:27:55;26.23;;;19.83;;
7607;SDS011;3845;48.120;11.534;2023-03-01T14:30:24;25.63;;;18.80;;
7607;SDS011;3845;48.120;11.534;2023-03-01T14:32:58;23.50;;;18.13;;
7607;SDS011;3845;48.120;11.534;2023-03-01T14:35:29;24.57;;;18.53;;
7607;SDS011;3845;48.120;11.534;2023-03-01T14:37:56;23.53;;;17.87;;
7607;SDS011;3845;48.120;11.534;2023-03-01T14:40:23;27.40;;;19.33;;
7607;SDS011;3845;48.120;11.534;2023-03-01T14:42:51;26.47;;;18.77;;
7607;SDS011;3845;48.120;11.534;2023-03-01T14:45:17;25.00;;;18.60;;
7607;SDS011;3845;48.120;11.534;2023-03-01T14:47:43;25.37;;;18.77;;
7607;SDS011;3845;48.120;11.534;2023-03-01T14:50:23;23.23;;;17.13;;
7607;SDS011;3845;48.120;11.534;2023-03-01T14:52:54;24.30;;;18.37;;
7607;SDS011;3845;48.120;11.534;2023-03-01T14:55:35;22.00;;;17.17;;
7607;SDS011;3845;48.120;11.534;2023-03-01T14:58:03;23.23;;;17.63;;
7607;SDS011;3845;48.120;11.534;2023-03-01T15:00:38;24.77;;;18.60;;
7607;SDS011;3845;48.120;11.534;2023-03-01T15:03:17;25.13;;;18.70;;
7607;SDS011;3845;48.120;11.534;2023-03-01T15:05:49;22.90;;;17.63;;
7607;SDS011;3845;48.120;11.534;2023-03-01T15:08:21;21.43;;;16.50;;
7607;SDS011;3845;48.120;11.534;2023-03-01T15:13:49;22.40;;;17.50;;
7607;SDS011;3845;48.120;11.534;2023-03-01T15:16:17;24.30;;;17.50;;
7607;SDS011;3845;48.120;11.534;2023-03-01T15:18:45;22.87;;;16.77;;
7607;SDS011;3845;48.120;11.534;2023-03-01T15:21:22;23.13;;;16.80;;
7607;SDS011;3845;48.120;11.534;2023-03-01T15:23:52;23.73;;;17.33;;
7607;SDS011;3845;48.120;11.534;2023-03-01T15:26:37;22.10;;;16.90;;
7607;SDS011;3845;48.120;11.534;2023-03-01T15:29:05;24.73;;;17.37;;
7607;SDS011;3845;48.120;11.534;2023-03-01T15:31:53;20.90;;;15.63;;
7607;SDS011;3845;48.120;11.534;2023-03-01T15:34:33;19.30;;;14.63;;
7607;SDS011;3845;48.120;11.534;2023-03-01T15:37:02;19.00;;;14.00;;
7607;SDS011;3845;48.120;11.534;2023-03-01T15:39:40;22.00;;;16.53;;
7607;SDS011;3845;48.120;11.534;2023-03-01T15:45:06;23.70;;;17.13;;
7607;SDS011;3845;48.120;11.534;2023-03-01T15:47:35;20.10;;;15.23;;
7607;SDS011;3845;48.120;11.534;2023-03-01T15:50:04;20.40;;;15.60;;
7607;SDS011;3845;48.120;11.534;2023-03-01T15:52:39;20.77;;;15.23;;
7607;SDS011;3845;48.120;11.534;2023-03-01T15:55:06;22.30;;;15.77;;
7607;SDS011;3845;48.120;11.534;2023-03-01T15:57:40;20.83;;;15.83;;
7607;SDS011;3845;48.120;11.534;2023-03-01T16:00:08;22.53;;;16.73;;
7607;SDS011;3845;48.120;11.534;2023-03-01T16:02:36;20.30;;;15.87;;
7607;SDS011;3845;48.120;11.534;2023-03-01T16:05:03;21.93;;;15.63;;
7607;SDS011;3845;48.120;11.534;2023-03-01T16:07:28;21.20;;;15.70;;
7607;SDS011;3845;48.120;11.534;2023-03-01T16:09:55;20.33;;;14.50;;
7607;SDS011;3845;48.120;11.534;2023-03-01T16:12:21;19.67;;;15.47;;
7607;SDS011;3845;48.120;11.534;2023-03-01T16:14:46;18.07;;;13.60;;
7607;SDS011;3845;48.120;11.534;2023-03-01T16:17:13;17.93;;;13.80;;
7607;SDS011;3845;48.120;11.534;2023-03-01T16:19:38;18.43;;;13.77;;
7607;SDS011;3845;48.120;11.534;2023-03-01T16:22:04;18.33;;;14.37;;
7607;SDS011;3845;48.120;11.534;2023-03-01T16:24:29;18.50;;;13.83;;
7607;SDS011;3845;48.120;11.534;2023-03-01T16:26:55;17.67;;;13.50;;
7607;SDS011;3845;48.120;11.534;2023-03-01T16:29:20;17.10;;;12.93;;
7607;SDS011;3845;48.120;11.534;2023-03-01T16:31:45;15.90;;;12.03;;
7607;SDS011;3845;48.120;11.534;2023-03-01T16:34:11;18.20;;;13.67;;
7607;SDS011;3845;48.120;11.534;2023-03-01T16:36:36;17.67;;;12.93;;
7607;SDS011;3845;48.120;11.534;2023-03-01T16:39:02;15.80;;;12.63;;
7607;SDS011;3845;48.120;11.534;2023-03-01T16:41:28;19.60;;;14.17;;
7607;SDS011;3845;48.120;11.534;2023-03-01T16:43:53;19.03;;;13.90;;
7607;SDS011;3845;48.120;11.534;2023-03-01T16:46:20;19.83;;;14.10;;
7607;SDS011;3845;48.120;11.534;2023-03-01T16:48:50;18.53;;;12.87;;
7607;SDS011;3845;48.120;11.534;2023-03-01T16:51:16;18.83;;;13.83;;
7607;SDS011;3845;48.120;11.534;2023-03-01T16:53:41;18.17;;;12.93;;
7607;SDS011;3845;48.120;11.534;2023-03-01T16:56:08;17.07;;;12.33;;
7607;SDS011;3845;48.120;11.534;2023-03-01T16:58:35;17.57;;;12.13;;
7607;SDS011;3845;48.120;11.534;2023-03-01T17:01:34;18.57;;;12.80;;